createdAt,value
2024-02-07T00:00:43.944Z,2.10
2024-02-07T00:01:44.063Z,2.07
2024-02-07T00:02:43.918Z,2.05
2024-02-07T00:03:43.991Z,2.07
2024-02-07T00:04:44.135Z,2.03
2024-02-07T00:05:43.969Z,2.02
2024-02-07T00:06:43.864Z,2.05
2024-02-07T00:07:43.900Z,2.05
2024-02-07T00:08:43.852Z,2.07
2024-02-07T00:09:43.837Z,2.08
2024-02-07T00:10:43.908Z,2.10
2024-02-07T00:11:43.857Z,2.08
2024-02-07T00:12:43.873Z,2.12
2024-02-07T00:13:43.906Z,2.14
2024-02-07T00:14:43.897Z,2.13
2024-02-07T00:15:43.913Z,2.07
2024-02-07T00:16:43.961Z,2.13
2024-02-07T00:17:43.970Z,2.09
2024-02-07T00:18:43.969Z,2.11
2024-02-07T00:19:44.157Z,2.10
2024-02-07T00:20:43.990Z,2.09
2024-02-07T00:21:43.957Z,2.10
2024-02-07T00:22:43.964Z,2.13
2024-02-07T00:23:43.936Z,2.14
2024-02-07T00:24:43.928Z,2.10
2024-02-07T00:25:43.950Z,2.14
2024-02-07T00:26:43.905Z,2.18
2024-02-07T00:27:43.904Z,2.23
2024-02-07T00:28:43.951Z,2.17
2024-02-07T00:29:43.947Z,2.22
2024-02-07T00:30:43.993Z,2.21
2024-02-07T00:31:44.089Z,2.18
2024-02-07T00:32:44.047Z,2.23
2024-02-07T00:33:44.011Z,2.23
2024-02-07T00:34:44.143Z,2.20
2024-02-07T00:35:44.061Z,2.22
2024-02-07T00:36:44.005Z,2.22
2024-02-07T00:37:44.095Z,2.25
2024-02-07T00:38:43.984Z,2.27
2024-02-07T00:39:43.990Z,2.21
2024-02-07T00:40:44.030Z,2.25
2024-02-07T00:41:43.976Z,2.22
2024-02-07T00:42:43.959Z,2.23
2024-02-07T00:43:43.989Z,2.17
2024-02-07T00:44:43.912Z,2.20
2024-02-07T00:45:43.904Z,2.16
2024-02-07T00:46:43.962Z,2.21
2024-02-07T00:47:43.895Z,2.10
2024-02-07T00:48:43.971Z,2.18
2024-02-07T00:49:43.972Z,2.17
2024-02-07T00:50:43.870Z,2.15
2024-02-07T00:51:43.882Z,2.15
2024-02-07T00:52:43.880Z,2.14
2024-02-07T00:53:43.848Z,2.13
2024-02-07T00:54:43.852Z,2.06
2024-02-07T00:55:43.901Z,2.04
2024-02-07T00:56:43.804Z,2.04
2024-02-07T00:57:43.788Z,2.04
2024-02-07T00:58:43.785Z,2.05
2024-02-07T00:59:43.739Z,2.07
2024-02-07T01:00:43.735Z,2.03
2024-02-07T01:01:43.774Z,2.06
2024-02-07T01:02:43.713Z,2.07
2024-02-07T01:03:43.687Z,2.10
2024-02-07T01:04:43.778Z,2.16
2024-02-07T01:05:43.658Z,2.14
2024-02-07T01:06:43.558Z,2.12
2024-02-07T01:07:43.595Z,2.09
2024-02-07T01:08:43.497Z,2.07
2024-02-07T01:09:43.459Z,2.08
2024-02-07T01:10:43.519Z,2.11
2024-02-07T01:11:43.391Z,2.17
2024-02-07T01:12:43.349Z,2.09
2024-02-07T01:13:43.394Z,2.15
2024-02-07T01:14:43.307Z,2.08
2024-02-07T01:15:43.273Z,2.06
2024-02-07T01:16:43.261Z,2.12
2024-02-07T01:17:43.255Z,2.13
2024-02-07T01:18:43.224Z,2.16
2024-02-07T01:19:43.152Z,2.13
2024-02-07T01:20:43.138Z,2.13
2024-02-07T01:21:43.103Z,2.11
2024-02-07T01:22:43.286Z,2.19
2024-02-07T01:23:43.138Z,2.16
2024-02-07T01:24:43.087Z,2.20
2024-02-07T01:26:43.063Z,2.13
2024-02-07T01:27:43.158Z,2.20
2024-02-07T01:28:42.978Z,2.20
2024-02-07T01:29:42.993Z,2.17
2024-02-07T01:30:42.877Z,2.21
2024-02-07T01:31:42.917Z,2.24
2024-02-07T01:32:42.959Z,2.23
2024-02-07T01:33:42.861Z,2.23
2024-02-07T01:34:42.903Z,2.30
2024-02-07T01:35:42.861Z,2.23
2024-02-07T01:36:42.793Z,2.19
2024-02-07T01:37:42.772Z,2.25
2024-02-07T01:38:42.716Z,2.28
2024-02-07T01:39:42.714Z,2.25
2024-02-07T01:40:42.706Z,2.22
2024-02-07T01:41:42.641Z,2.20
2024-02-07T01:42:42.592Z,2.20
2024-02-07T01:43:42.621Z,2.24
2024-02-07T01:44:42.537Z,2.20
2024-02-07T01:45:42.499Z,2.22
2024-02-07T01:46:42.483Z,2.19
2024-02-07T01:47:42.495Z,2.24
2024-02-07T01:48:42.470Z,2.16
2024-02-07T01:49:42.390Z,2.18
2024-02-07T01:50:42.335Z,2.19
2024-02-07T01:51:42.326Z,2.23
2024-02-07T01:52:42.305Z,2.18
2024-02-07T01:53:42.244Z,2.18
2024-02-07T01:54:42.239Z,2.18
2024-02-07T01:55:42.208Z,2.17
2024-02-07T01:56:42.186Z,2.17
2024-02-07T01:57:42.157Z,2.16
2024-02-07T01:58:42.128Z,2.19
2024-02-07T01:59:42.081Z,2.16
2024-02-07T02:00:42.100Z,2.15
2024-02-07T02:01:42.073Z,2.18
2024-02-07T02:02:42.013Z,2.13
2024-02-07T02:03:42.011Z,2.16
2024-02-07T02:04:41.969Z,2.21
2024-02-07T02:05:41.941Z,2.15
2024-02-07T02:06:41.935Z,2.13
2024-02-07T02:07:41.892Z,2.13
2024-02-07T02:08:41.808Z,2.10
2024-02-07T02:09:41.767Z,2.09
2024-02-07T02:10:41.777Z,2.14
2024-02-07T02:11:41.698Z,2.14
2024-02-07T02:12:41.690Z,2.18
2024-02-07T02:13:41.734Z,2.12
2024-02-07T02:14:41.630Z,2.14
2024-02-07T02:15:41.612Z,2.12
2024-02-07T02:16:41.676Z,2.10
2024-02-07T02:17:41.661Z,2.10
2024-02-07T02:18:41.545Z,2.14
2024-02-07T02:19:41.593Z,2.12
2024-02-07T02:20:41.710Z,2.12
2024-02-07T02:21:41.476Z,2.07
2024-02-07T02:22:41.602Z,2.10
2024-02-07T02:23:41.413Z,2.09
2024-02-07T02:24:41.376Z,2.08
2024-02-07T02:25:41.385Z,2.08
2024-02-07T02:26:41.308Z,2.08
2024-02-07T02:27:41.353Z,2.06
2024-02-07T02:28:41.344Z,2.01
2024-02-07T02:29:41.267Z,2.06
2024-02-07T02:30:41.241Z,2.01
2024-02-07T02:31:41.272Z,2.02
2024-02-07T02:32:41.222Z,1.96
2024-02-07T02:33:41.184Z,1.98
2024-02-07T02:34:41.533Z,1.96
2024-02-07T02:35:41.107Z,1.93
2024-02-07T02:36:41.118Z,1.91
2024-02-07T02:37:41.172Z,1.92
2024-02-07T02:38:41.100Z,1.89
2024-02-07T02:39:41.098Z,1.94
2024-02-07T02:40:41.183Z,1.98
2024-02-07T02:41:41.062Z,1.94
2024-02-07T02:42:41.076Z,1.93
2024-02-07T02:43:41.250Z,1.99
2024-02-07T02:44:41.167Z,1.97
2024-02-07T02:45:41.093Z,1.99
2024-02-07T02:46:41.129Z,1.95
2024-02-07T02:47:41.050Z,1.97
2024-02-07T02:48:41.076Z,1.91
2024-02-07T02:49:41.070Z,1.95
2024-02-07T02:50:40.955Z,1.92
2024-02-07T02:51:40.917Z,1.93
2024-02-07T02:52:41.055Z,1.93
2024-02-07T02:53:40.872Z,1.89
2024-02-07T02:54:40.841Z,1.93
2024-02-07T02:55:40.836Z,1.85
2024-02-07T02:56:40.776Z,1.91
2024-02-07T02:57:40.725Z,1.91
2024-02-07T02:59:40.650Z,1.87
2024-02-07T03:00:40.634Z,1.92
2024-02-07T03:02:40.545Z,1.87
2024-02-07T03:03:40.506Z,1.83
2024-02-07T03:04:40.585Z,1.87
2024-02-07T03:05:40.673Z,1.83
2024-02-07T03:06:40.497Z,1.80
2024-02-07T03:07:40.539Z,1.84
2024-02-07T03:08:40.378Z,1.84
2024-02-07T03:09:40.348Z,1.83
2024-02-07T03:10:40.490Z,1.78
2024-02-07T03:11:40.390Z,1.80
2024-02-07T03:12:40.230Z,1.79
2024-02-07T03:13:40.226Z,1.77
2024-02-07T03:14:40.166Z,1.83
2024-02-07T03:15:40.150Z,1.79
2024-02-07T03:16:40.117Z,1.77
2024-02-07T03:17:40.450Z,1.78
2024-02-07T03:18:40.128Z,1.80
2024-02-07T03:19:40.066Z,1.78
2024-02-07T03:20:39.978Z,1.80
2024-02-07T03:21:39.936Z,1.79
2024-02-07T03:22:39.989Z,1.75
2024-02-07T03:23:39.904Z,1.75
2024-02-07T03:24:39.864Z,1.76
2024-02-07T03:25:39.874Z,1.71
2024-02-07T03:26:39.813Z,1.73
2024-02-07T03:27:39.771Z,1.70
2024-02-07T03:28:39.777Z,1.74
2024-02-07T03:29:39.706Z,1.73
2024-02-07T03:30:39.668Z,1.69
2024-02-07T03:31:39.663Z,1.76
2024-02-07T03:32:39.632Z,1.71
2024-02-07T03:33:39.648Z,1.74
2024-02-07T03:34:39.630Z,1.76
2024-02-07T03:35:39.568Z,1.74
2024-02-07T03:36:39.555Z,1.73
2024-02-07T03:37:39.588Z,1.78
2024-02-07T03:38:39.502Z,1.75
2024-02-07T03:39:39.481Z,1.72
2024-02-07T03:40:39.488Z,1.74
2024-02-07T03:41:39.455Z,1.76
2024-02-07T03:42:39.443Z,1.75
2024-02-07T03:43:39.489Z,1.74
2024-02-07T03:44:39.360Z,1.75
2024-02-07T03:45:39.323Z,1.77
2024-02-07T03:46:39.367Z,1.75
2024-02-07T03:47:39.316Z,1.74
2024-02-07T03:48:40.876Z,1.76
2024-02-07T03:49:39.376Z,1.80
2024-02-07T03:50:39.154Z,1.80
2024-02-07T03:51:39.137Z,1.78
2024-02-07T03:52:39.130Z,1.79
2024-02-07T03:53:39.070Z,1.84
2024-02-07T03:54:39.018Z,1.84
2024-02-07T03:55:39.207Z,1.80
2024-02-07T03:56:39.052Z,1.78
2024-02-07T03:57:38.925Z,1.80
2024-02-07T03:58:38.949Z,1.81
2024-02-07T03:59:38.834Z,1.86
2024-02-07T04:00:38.850Z,1.87
2024-02-07T04:01:38.923Z,1.83
2024-02-07T04:02:38.764Z,1.85
2024-02-07T04:03:38.753Z,1.86
2024-02-07T04:04:38.740Z,1.79
2024-02-07T04:05:38.755Z,1.82
2024-02-07T04:06:38.750Z,1.85
2024-02-07T04:07:38.814Z,1.83
2024-02-07T04:08:41.257Z,1.83
2024-02-07T04:09:38.628Z,1.80
2024-02-07T04:10:38.556Z,1.83
2024-02-07T04:11:38.511Z,1.81
2024-02-07T04:12:38.462Z,1.84
2024-02-07T04:13:38.499Z,1.81
2024-02-07T04:14:39.743Z,1.81
2024-02-07T04:15:38.385Z,1.79
2024-02-07T04:16:38.425Z,1.82
2024-02-07T04:17:38.462Z,1.79
2024-02-07T04:18:38.514Z,1.80
2024-02-07T04:19:38.530Z,1.77
2024-02-07T04:20:38.520Z,1.77
2024-02-07T04:21:38.527Z,1.75
2024-02-07T04:22:38.571Z,1.75
2024-02-07T04:23:38.541Z,1.79
2024-02-07T04:24:38.537Z,1.72
2024-02-07T04:25:38.564Z,1.80
2024-02-07T04:26:38.514Z,1.77
2024-02-07T04:27:38.510Z,1.75
2024-02-07T04:28:38.530Z,1.74
2024-02-07T04:29:38.470Z,1.76
2024-02-07T04:30:38.453Z,1.79
